This is the latest recevied weather packets stored in our database for station/object OSTR-WX. If no packets are shown the sender has not sent any weather packets the latest 10 day(s).
| Time | Temp. | Humidity | Pressure | Rain* | Wind** | Luminosity | Snow |
|---|---|---|---|---|---|---|---|
| 1777664500 | 10° C | 73% | 1026.5 hPa | - | - | - | - |
| 1777663546 | 10.56° C | 72% | 1026.2 hPa | - | - | - | - |
| 1777663543 | 10.56° C | 72% | 1026.2 hPa | - | - | - | - |
| 1777660678 | 13.33° C | 64% | 1025.6 hPa | - | - | - | - |
| 1777660672 | 13.33° C | 64% | 1025.6 hPa | - | - | - | - |
| 1777660672 | 13.33° C | 64% | 1025.6 hPa | - | - | - | - |
| 1777659715 | 13.89° C | 60% | 1025.3 hPa | - | - | - | - |
| 1777659715 | 13.89° C | 60% | 1025.3 hPa | - | - | - | - |
| 1777655890 | 21.11° C | 38% | 1024 hPa | - | - | - | - |
| 1777654936 | 21.67° C | 38% | 1023.8 hPa | - | - | - | - |
| 1777654933 | 21.67° C | 38% | 1023.8 hPa | - | - | - | - |
| 1777653972 | 20.56° C | 40% | 1024 hPa | - | - | - | - |
| 1777652061 | 22.78° C | 36% | 1023.7 hPa | - | - | - | - |
| 1777652059 | 22.78° C | 36% | 1023.7 hPa | - | - | - | - |
| 1777651102 | 25° C | 34% | 1023.5 hPa | - | - | - | - |
| 1777650148 | 24.44° C | 35% | 1023.6 hPa | - | - | - | - |
| 1777650145 | 24.44° C | 35% | 1023.6 hPa | - | - | - | - |
| 1777649188 | 23.33° C | 38% | 1023.7 hPa | - | - | - | - |
| 1777648233 | 22.22° C | 39% | 1024 hPa | - | - | - | - |
| 1777648231 | 22.22° C | 39% | 1024 hPa | - | - | - | - |
| 1777646320 | 21.67° C | 40% | 1024.3 hPa | - | - | - | - |
| 1777646317 | 21.67° C | 40% | 1024.3 hPa | - | - | - | - |
| 1777645368 | 0° C | 100% | 0 hPa | - | - | - | - |
| 1777645361 | 0° C | 100% | 0 hPa | - | - | - | - |
| 1777644406 | 0° C | 100% | 0 hPa | - | - | - | - |
* Rain since midnight (hover to see other rain measurements)
** Current wind speed in m/s (hover to see current wind gust speed)